Nearby METAR Reports

 

KBUF - Buffalo/Cheektow, New York, USA
Distance from station: ENE 2mi, 3km
Updated: 09/22/2017 8:54am
Mostly cloudy
Mostly cloudy
 Wind from calm
Wind: Calm
Temperature: 66°F , 19°C
Dew Point: 59°F , 15°C
Humidity: 78%
Barometer: 30.16 inHg , 1021.3 hPa
Clouds: Mostly cloudy
Visibility: 10 miles , 16 km
Cloud details: Few Clouds 13000 ft
Mostly cloudy 25000 ft
2017/09/22 12:54 KBUF 221254Z 00000KT 10SM FEW130 BKN250 19/15 A3016 RMK AO2 SLP211 T01890150
KIAG - Niagara Falls, New York, USA
Distance from station: NNW 16mi, 25km
Updated: 09/22/2017 8:53am
Mostly cloudy
Mostly cloudy
 Wind from calm
Wind: Calm
Temperature: 66°F , 19°C
Dew Point: 61°F , 16°C
Humidity: 83%
Barometer: 30.15 inHg , 1021 hPa
Clouds: Mostly cloudy
Visibility: 8 miles , 13 km
Cloud details: Mostly cloudy 11000 ft
2017/09/22 12:53 KIAG 221253Z 00000KT 8SM BKN110 19/16 A3015 RMK AO2 SLP209 T01940156
 
CYSN - St. Catharines A, Ontario, Canada
Distance from station: NW 28mi, 45km
Updated: 09/22/2017 9:00am
Mostly cloudy
Mostly cloudy
 Wind from SW
Wind: SW 2 mph , 4 km/h
Temperature: 63°F , 17°C
Dew Point: 63°F , 17°C
Humidity: 100%
Barometer: 30.15 inHg , 1021 hPa
Clouds: Mostly cloudy
Visibility: 15 miles , 24 km
Cloud details: Few Clouds 12000 ft
Mostly cloudy 24000 ft
2017/09/22 13:00 CYSN 221300Z 22002KT 15SM FEW120 BKN240 17/17 A3015 RMK AC2CI3 SLP210 DENSITY ALT 400FT
CWWZ - Port Weller (mar, Ontario, Canada
Distance from station: NW 32mi, 51km
Updated: 09/22/2017 9:00am

 Wind from S
Wind: S 1 mph , 2 km/h
Temperature: 66°F , 19°C
Dew Point: 61°F , 16°C
Humidity: 83%
2017/09/22 13:00 CWWZ 221300Z AUTO 17001KT 19/16 RMK AO1 SLP209 T01910156 50007
 
CXVN - Vineland (au8), Ontario, Canada
Distance from station: WNW 37mi, 59km
Updated: 09/22/2017 9:00am

 Wind from SSW
Wind: SSW 1 mph , 2 km/h
Temperature: 66°F , 19°C
Dew Point: 64°F , 18°C
Humidity: 94%
2017/09/22 13:00 CXVN 221300Z AUTO 21001KT 19/18 RMK AO1 SLP200 T01910182 50007
KDKK - Dunkirk, New York, USA
Distance from station: SW 39mi, 63km
Updated: 09/22/2017 8:53am

 Wind from calm
Wind: Calm
Temperature: 64°F , 18°C
Dew Point: 61°F , 16°C
Humidity: 88%
Barometer: 30.16 inHg , 1021.3 hPa
Visibility: 10 miles , 16 km
2017/09/22 12:53 KDKK 221253Z AUTO 00000KT 10SM 18/16 A3016 RMK AO2 SLP210 T01830161 $
 
KOLE - Olean, New York, USA
Distance from station: SSE 52mi, 83km
Updated: 09/22/2017 8:55am
Clear
Clear
 Wind from calm
Wind: Calm
Temperature: 59°F , 15°C
Dew Point: 55°F , 13°C
Humidity: 88%
Barometer: 30.20 inHg , 1022.7 hPa
Clouds: Clear
Visibility: 10 miles , 16 km
2017/09/22 12:55 KOLE 221255Z AUTO 00000KT 10SM CLR 15/13 A3020 RMK AO2
KROC - Rochester, New York, USA
Distance from station: ENE 56mi, 91km
Updated: 09/22/2017 8:54am
Mostly cloudy
Mostly cloudy
 Wind from WSW
Wind: WSW 3 mph , 6 km/h
Temperature: 63°F , 17°C
Dew Point: 61°F , 16°C
Humidity: 94%
Barometer: 30.15 inHg , 1021 hPa
Clouds: Mostly cloudy
Visibility: 8 miles , 13 km
Cloud details: Few Clouds 18000 ft
Mostly cloudy 25000 ft
2017/09/22 12:54 KROC 221254Z 24003KT 8SM FEW180 BKN250 17/16 A3015 RMK AO2 SLP213 T01720161
 
CWWB - Burlington Piers, Ontario, Canada
Distance from station: WNW 57mi, 92km
Updated: 09/22/2017 9:00am

 Wind from N
Wind: N 2 mph , 4 km/h
Temperature: 70°F , 21°C
Dew Point: 64°F , 18°C
Humidity: 83%
2017/09/22 13:00 CWWB 221300Z AUTO 36002KT 21/18 RMK AO1 SLP210 T02090184 51006
CYTZ - Toronto Il Vor, Ontario, Canada
Distance from station: NNW 58mi, 94km
Updated: 09/22/2017 9:00am
Clear
Clear
 Wind from E
Wind: E 6 mph , 9 km/h
Temperature: 72°F , 22°C
Dew Point: 66°F , 19°C
Humidity: 83%
Barometer: 30.15 inHg , 1021 hPa
Clouds: Clear
Visibility: 8 miles , 13 km
2017/09/22 13:00 CYTZ 221300Z AUTO 09005KT 8SM CLR 22/19 A3015 RMK SLP212 DENSITY ALT 800FT
 
KDSV - Dansville, New York, USA
Distance from station: ESE 59mi, 95km
Updated: 09/22/2017 8:54am
Partly cloudy
Partly cloudy
 Wind from calm
Wind: Calm
Temperature: 57°F , 14°C
Dew Point: 55°F , 13°C
Humidity: 94%
Barometer: 30.17 inHg , 1021.7 hPa
Clouds: Partly cloudy
Visibility: 10 miles , 16 km
Cloud details: Partly cloudy 400 ft
2017/09/22 12:54 KDSV 221254Z AUTO 00000KT 10SM SCT004 14/13 A3017 RMK AO2 SLP225 T01440133
CXTO - Toronto City, Ontario, Canada
Distance from station: NNW 60mi, 97km
Updated: 09/22/2017 9:00am

 
Temperature: 72°F , 22°C
Dew Point: 64°F , 18°C
Humidity: 78%
2017/09/22 13:00 CXTO 221300Z AUTO 22/18 RMK AO1 SLP211 T02170175 51007
 
KJHW - Jamestown, New York, USA
Distance from station: SSW 60mi, 97km
Updated: 09/22/2017 8:56am
Clear
Clear
 Wind from calm
Wind: Calm
Temperature: 63°F , 17°C
Dew Point: 57°F , 14°C
Humidity: 83%
Barometer: 30.19 inHg , 1022.4 hPa
Clouds: Clear
Visibility: 10 miles , 16 km
2017/09/22 12:56 KJHW 221256Z AUTO 00000KT 10SM CLR 17/14 A3019 RMK AO2 SLP222 T01720144
CYHM - Hamilton Airport, Ontario, Canada
Distance from station: WNW 61mi, 98km
Updated: 09/22/2017 9:00am
Mist, Few clouds
Mist, Few clouds
 Wind from ENE
Wind: ENE 6 mph , 9 km/h
Temperature: 66°F , 19°C
Dew Point: 66°F , 19°C
Humidity: 100%
Barometer: 30.16 inHg , 1021.3 hPa
Summary: Mist
Clouds: Few Clouds
Visibility: 3 miles , 5 km
Cloud details: Few Clouds 14000 ft
Few Clouds 21000 ft
2017/09/22 13:00 CYHM 221300Z 06005KT 3SM BR FEW140 FEW210 19/19 A3016 RMK AC1CI1 SLP214 DENSITY ALT 1200FT
 
CXHM - Hamilton Rbg Cs, Ontario, Canada
Distance from station: WNW 62mi, 100km
Updated: 09/22/2017 9:00am

 Wind from WSW
Wind: WSW 1 mph , 2 km/h
Temperature: 66°F , 19°C
Dew Point: 66°F , 19°C
Humidity: 100%
2017/09/22 13:00 CXHM 221300Z AUTO 25001KT 19/19 RMK AO1 SLP203 T01940186 51006
CYYZ - Toronto/Pearson, Ontario, Canada
Distance from station: NW 67mi, 107km
Updated: 09/22/2017 9:00am
Few Clouds
Few Clouds
 Wind from calm
Wind: Calm
Temperature: 70°F , 21°C
Dew Point: 63°F , 17°C
Humidity: 78%
Barometer: 30.16 inHg , 1021.3 hPa
Clouds: Few Clouds
Visibility: 15 miles , 24 km
Cloud details: Few Clouds 22000 ft
2017/09/22 13:00 CYYZ 221300Z 00000KT 15SM FEW220 21/17 A3016 RMK CI1 SLP213 DENSITY ALT 1200FT
 
CWPS - Long Point (maps, Ontario, Canada
Distance from station: WSW 69mi, 111km
Updated: 09/22/2017 8:00am
NOT Current

 Wind from NE
Wind: NE 3 mph , 6 km/h
Temperature: 72°F , 22°C
Dew Point: 64°F , 18°C
Humidity: 78%
2017/09/22 12:00 CWPS 221200Z AUTO 04003KT 22/18 RMK AO1 SLP201 T02180180 51010
CYOO - Oshawa, Ontario, Canada
Distance from station: N 69mi, 111km
Updated: 09/22/2017 9:07am
Haze, Few clouds
Haze, Few clouds
 Wind from N
Wind: N 3 mph , 6 km/h
Temperature: 70°F , 21°C
Dew Point: 57°F , 14°C
Humidity: 64%
Barometer: 30.16 inHg , 1021.3 hPa
Summary: Haze
Clouds: Few Clouds
Visibility: 5 miles , 8 km
Cloud details: Few Clouds 200 ft
2017/09/22 13:07 CYOO 221307Z AUTO 01003KT 5SM HZ FEW002 21/14 A3016 RMK SLP214 DENSITY ALT 1000FT
 
KELZ - Wellsville, New York, USA
Distance from station: SE 70mi, 112km
Updated: 09/22/2017 8:56am
Fog, Overcast
Fog, Overcast
 Wind from NNW
Wind: NNW 6 mph , 9 km/h
Temperature: 57°F , 14°C
Dew Point: 55°F , 13°C
Humidity: 94%
Barometer: 30.20 inHg , 1022.7 hPa
Summary: Fog
Clouds: Overcast
Visibility: 1/4 mile , 2 km
Cloud details: Overcast 100 ft
2017/09/22 12:56 KELZ 221256Z AUTO 34005KT 1/4SM FG VV001 14/13 A3020 RMK AO2 SLP221 T01440133
CYKZ - Toronto Buttonvi, Ontario, Canada
Distance from station: NNW 72mi, 116km
Updated: 09/22/2017 9:00am
Few Clouds
Few Clouds
 Wind from varies
Wind: varies 2 mph , 4 km/h
Temperature: 68°F , 20°C
Dew Point: 63°F , 17°C
Humidity: 83%
Barometer: 30.16 inHg , 1021.3 hPa
Clouds: Few Clouds
Visibility: 15 miles , 24 km
Cloud details: Few Clouds 8500 ft
Few Clouds 24000 ft
2017/09/22 13:00 CYKZ 221300Z VRB02KT 15SM FEW085 FEW240 20/17 A3016 RMK AC1CI1 AC TR SLP215 DENSITY ALT 1200FT